Nevado del Ruiz volcano news & activity updates

Nevado del Ruiz Volcano Volcanic Ash Advisory: PSBL VA OBS FM 1700Z VONA OBS VA DTG: 19/1550Z to 19000 ft (5800 m)

Mon, 19 Jul 2021, 17:45
17:45 PM | BY: VN
Explosive activity continues. Volcanic Ash Advisory Center (VAAC) Washington warned about a volcanic ash plume that rose up to estimated 19000 ft (5800 m) altitude or flight level 190 .
The full report is as follows:

FVXX22 at 17:40 UTC, 19/07/21 from KNES
VA ADVISORY -CORRECTION
DTG: 20210719/1736Z
VAAC: WASHINGTON
VOLCANO: RUIZ 351020
PSN: N0453 W07519
AREA: COLOMBIA
SUMMIT ELEV: 17457 FT [5321 M]
ADVISORY NR: 2021/063
INFO SOURCE: GOES-16. VONA. NWP MODELS.
ERUPTION DETAILS: PSBL VA OBS FM 1700Z VONA
OBS VA DTG: 19/1550Z
OBS VA CLD: SFC/FL190 N0514 W07537 - N0459 W07517
- N0447 W07521 - N0454 W07545 - N0514 W07537 MOV
W 15KT
FCST VA CLD +6HR: 19/2200Z SFC/FL190 N0517 W07556
- N0459 W07516 - N0446 W07519 - N0449 W07557 -
N0517 W07556
FCST VA CLD +12HR: 20/0400Z NO VA EXP
FCST VA CLD +18HR: 20/1000Z NO VA EXP
RMK: CORRECTED DUE TO NEW 1700Z VONA RECEIVED.
PSBL VA OBS FM VONA MOVG WNW FM SUMMIT. RE EMS DO
NOT APPR AS VA FM STLT DATA BUT COULD BE OBSCD
UNDER WX CLDS. WINDS FCST TO SHFT TO THE W THRU
T+6 ...MLEVINE
NXT ADVISORY: WILL BE ISSUED BY 20210719/2330Z
24/23 A3008 RMK
AO2 LTG DSNT S T02420226=
METAR KBQK 191555Z AUTO 23008KT 10SM SCT024 SCT033 30/23 A3010 RMK
AO2 LTG DSNT E T03040231=
METAR KVRB 191553Z COR 17008KT 130V220 7SM RA SCT029 SCT050 BKN095
31/24 A3015 RMK AO2 RAB52 SLP208 P0000 T03060244=
METAR KWWR 191555Z AUTO 10003KT 10SM OVC010 22/20 A3024 RMK
AO2=
METAR KISM 191556Z 17009KT 10SM BKN029 BKN060 A3015 RMK AO2 SLPNO
PNO ?=
METAR KGTR 191556Z VRB04KT 10SM OVC011 26/25 A3005 RMK AO2 SLP181
T02560250 PNO ?=
METAR KLRD 191556Z 00000KT 10SM CLR 32/24 A3005 RMK AO2 SLP169
T03170239=
METAR KADF 191556Z AUTO 00000KT 10SM SCT014 OVC023 25/ A3008 RMK
AO2 SLPNO T0250=
METAR KSGJ 191556Z 18005KT 10SM BKN021 31/24 A3012 RMK AO2 SLP197
T03060244=
METAR KHUM 191550Z 243004G14KT 7SM SCT030 30/23 A3010=

Previous news

Try our free app!
Volcanoes & Earthquakes - new app for Android
Android | iOS version

More on VolcanoDiscovery

Why is there advertising on this site?
Support us - Help us upgrade our services!
We truly love working to bring you the latest volcano and earthquake data from around the world. Maintaining our website and our free apps does require, however, considerable time and resources.
We need financing to increase hard- and software capacity as well as support our editor team. We're aiming to achieve uninterrupted service wherever an earthquake or volcano eruption unfolds, and your donations can make it happen! Every donation will be highly appreciated. If you find the information useful and would like to support our team in integrating further features, write great content, and in upgrading our soft- and hardware, please make a donation (PayPal or Online credit card payment).

Planned features:
  • Weather reports
  • Tsunami alerts
  • Design upgrades
  • Faster responsiveness
Thanks to your past donations, these features have been added recently:
  • Earthquake archive from 1900 onwards
  • Additional seismic data sources
  • Improved content in English
Download and Upgrade the Volcanoes & Earthquakes app to get one of the fastest seismic and volcano alerts online:
Android | IOS
Thank you!
Copyrights: VolcanoDiscovery and other sources as noted.
Use of material: Most texts and images, in particular photographs, on this website are protected by copyright. Further reproduction and use of without authorization is usually not consented. If you are not sure or need licensing rights for photographs, for example for publications and commercial use, please contact us.